sensor_id;sensor_type;location;lat;lon;timestamp;pressure;altitude;pressure_sealevel;temperature;humidity
73085;BME280;62974;49.460;10.892;2023-06-22T00:00:25;97916.63;;;20.62;77.60
73085;BME280;62974;49.460;10.892;2023-06-22T00:02:53;97922.09;;;20.62;77.58
73085;BME280;62974;49.460;10.892;2023-06-22T00:05:22;97920.78;;;20.70;76.35
73085;BME280;62974;49.460;10.892;2023-06-22T00:07:50;97918.88;;;20.75;76.24
73085;BME280;62974;49.460;10.892;2023-06-22T00:10:17;97921.31;;;20.72;76.54
73085;BME280;62974;49.460;10.892;2023-06-22T00:12:45;97912.00;;;20.68;76.99
73085;BME280;62974;49.460;10.892;2023-06-22T00:15:12;97923.41;;;20.59;77.37
73085;BME280;62974;49.460;10.892;2023-06-22T00:17:40;97935.09;;;20.55;78.04
73085;BME280;62974;49.460;10.892;2023-06-22T00:20:09;97928.03;;;20.54;76.16
73085;BME280;62974;49.460;10.892;2023-06-22T00:22:38;97937.00;;;20.54;77.56
73085;BME280;62974;49.460;10.892;2023-06-22T00:25:06;97945.47;;;20.53;77.85
73085;BME280;62974;49.460;10.892;2023-06-22T00:27:34;97944.66;;;20.52;77.03
73085;BME280;62974;49.460;10.892;2023-06-22T00:30:03;97947.63;;;20.51;78.13
73085;BME280;62974;49.460;10.892;2023-06-22T00:32:31;97953.09;;;20.51;77.83
73085;BME280;62974;49.460;10.892;2023-06-22T00:34:58;97969.38;;;20.41;78.40
73085;BME280;62974;49.460;10.892;2023-06-22T00:37:26;97977.56;;;20.41;77.91
73085;BME280;62974;49.460;10.892;2023-06-22T00:39:57;97973.25;;;20.45;76.72
73085;BME280;62974;49.460;10.892;2023-06-22T00:42:25;97979.22;;;20.42;78.05
73085;BME280;62974;49.460;10.892;2023-06-22T00:44:52;97990.06;;;20.37;78.17
73085;BME280;62974;49.460;10.892;2023-06-22T00:47:20;97982.66;;;20.32;78.25
73085;BME280;62974;49.460;10.892;2023-06-22T00:49:49;97976.03;;;20.28;79.29
73085;BME280;62974;49.460;10.892;2023-06-22T00:52:19;97968.72;;;20.29;79.63
73085;BME280;62974;49.460;10.892;2023-06-22T00:54:48;97971.66;;;20.27;79.94
73085;BME280;62974;49.460;10.892;2023-06-22T00:57:18;97967.84;;;20.28;79.04
73085;BME280;62974;49.460;10.892;2023-06-22T00:59:48;97976.38;;;20.32;79.01
73085;BME280;62974;49.460;10.892;2023-06-22T01:02:15;97966.00;;;20.29;78.20
73085;BME280;62974;49.460;10.892;2023-06-22T01:04:43;97949.63;;;20.29;78.22
73085;BME280;62974;49.460;10.892;2023-06-22T01:07:20;97943.00;;;20.25;79.54
73085;BME280;62974;49.460;10.892;2023-06-22T01:09:57;97941.34;;;20.24;78.89
73085;BME280;62974;49.460;10.892;2023-06-22T01:12:30;97920.94;;;20.26;78.37
73085;BME280;62974;49.460;10.892;2023-06-22T01:15:06;97924.38;;;20.16;79.84
73085;BME280;62974;49.460;10.892;2023-06-22T01:17:36;97904.47;;;20.16;80.43
73085;BME280;62974;49.460;10.892;2023-06-22T01:20:08;97894.13;;;20.18;78.98
73085;BME280;62974;49.460;10.892;2023-06-22T01:22:46;97891.59;;;20.11;80.14
73085;BME280;62974;49.460;10.892;2023-06-22T01:25:20;97880.16;;;20.09;80.24
73085;BME280;62974;49.460;10.892;2023-06-22T01:27:56;97868.41;;;20.09;79.22
73085;BME280;62974;49.460;10.892;2023-06-22T01:30:29;97874.91;;;20.03;80.23
73085;BME280;62974;49.460;10.892;2023-06-22T01:33:00;97886.03;;;19.96;81.73
73085;BME280;62974;49.460;10.892;2023-06-22T01:35:29;97894.97;;;19.92;81.88
73085;BME280;62974;49.460;10.892;2023-06-22T01:37:57;97897.22;;;20.00;79.61
73085;BME280;62974;49.460;10.892;2023-06-22T01:40:28;97896.97;;;20.01;78.95
73085;BME280;62974;49.460;10.892;2023-06-22T01:42:57;97901.00;;;19.94;80.03
73085;BME280;62974;49.460;10.892;2023-06-22T01:45:28;97894.16;;;19.91;79.83
73085;BME280;62974;49.460;10.892;2023-06-22T01:47:56;97893.94;;;19.98;79.08
73085;BME280;62974;49.460;10.892;2023-06-22T01:50:26;97895.75;;;19.87;80.54
73085;BME280;62974;49.460;10.892;2023-06-22T01:52:54;97897.69;;;19.92;79.45
73085;BME280;62974;49.460;10.892;2023-06-22T01:55:21;97905.88;;;19.92;79.83
73085;BME280;62974;49.460;10.892;2023-06-22T01:57:49;97911.03;;;19.88;79.31
73085;BME280;62974;49.460;10.892;2023-06-22T02:00:19;97910.19;;;19.88;78.92
73085;BME280;62974;49.460;10.892;2023-06-22T02:02:53;97924.22;;;19.75;82.08
73085;BME280;62974;49.460;10.892;2023-06-22T02:05:26;97912.84;;;19.83;79.39
73085;BME280;62974;49.460;10.892;2023-06-22T02:08:00;97925.16;;;19.85;79.89
73085;BME280;62974;49.460;10.892;2023-06-22T02:10:31;97932.22;;;19.81;79.80
73085;BME280;62974;49.460;10.892;2023-06-22T02:13:01;97924.41;;;19.90;78.16
73085;BME280;62974;49.460;10.892;2023-06-22T02:15:28;97922.97;;;19.82;80.33
73085;BME280;62974;49.460;10.892;2023-06-22T02:17:58;97932.66;;;19.73;81.13
73085;BME280;62974;49.460;10.892;2023-06-22T02:20:26;97916.69;;;19.82;78.48
73085;BME280;62974;49.460;10.892;2023-06-22T02:22:53;97921.00;;;19.78;79.75
73085;BME280;62974;49.460;10.892;2023-06-22T02:25:21;97916.31;;;19.73;79.85
73085;BME280;62974;49.460;10.892;2023-06-22T02:27:49;97923.34;;;19.69;80.10
73085;BME280;62974;49.460;10.892;2023-06-22T02:30:16;97931.78;;;19.67;80.27
73085;BME280;62974;49.460;10.892;2023-06-22T02:32:44;97946.69;;;19.60;81.68
73085;BME280;62974;49.460;10.892;2023-06-22T02:35:13;97969.69;;;19.47;83.70
73085;BME280;62974;49.460;10.892;2023-06-22T02:37:41;98002.25;;;19.59;82.53
73085;BME280;62974;49.460;10.892;2023-06-22T02:40:09;98046.56;;;18.09;100.00
73085;BME280;62974;49.460;10.892;2023-06-22T02:42:37;98075.06;;;17.44;100.00
73085;BME280;62974;49.460;10.892;2023-06-22T02:45:06;98091.22;;;17.38;100.00
73085;BME280;62974;49.460;10.892;2023-06-22T02:47:33;98085.31;;;17.65;100.00
73085;BME280;62974;49.460;10.892;2023-06-22T02:50:01;98092.91;;;17.40;100.00
73085;BME280;62974;49.460;10.892;2023-06-22T02:52:30;98087.78;;;17.20;100.00
73085;BME280;62974;49.460;10.892;2023-06-22T02:54:58;98083.94;;;17.62;100.00
73085;BME280;62974;49.460;10.892;2023-06-22T02:57:25;98078.38;;;17.34;100.00
73085;BME280;62974;49.460;10.892;2023-06-22T02:59:53;98068.09;;;17.71;100.00
73085;BME280;62974;49.460;10.892;2023-06-22T03:02:21;98073.88;;;17.63;100.00
73085;BME280;62974;49.460;10.892;2023-06-22T03:04:49;98052.63;;;18.00;100.00
73085;BME280;62974;49.460;10.892;2023-06-22T03:07:19;98040.56;;;18.81;93.59
73085;BME280;62974;49.460;10.892;2023-06-22T03:09:48;98023.72;;;18.84;91.82
73085;BME280;62974;49.460;10.892;2023-06-22T03:12:16;98019.00;;;19.12;88.58
73085;BME280;62974;49.460;10.892;2023-06-22T03:14:44;98010.91;;;19.17;87.65
73085;BME280;62974;49.460;10.892;2023-06-22T03:17:11;98017.31;;;19.28;86.96
73085;BME280;62974;49.460;10.892;2023-06-22T03:19:39;98012.72;;;19.29;87.13
73085;BME280;62974;49.460;10.892;2023-06-22T03:22:06;97997.19;;;19.29;86.90
73085;BME280;62974;49.460;10.892;2023-06-22T03:24:36;98010.19;;;19.22;87.87
73085;BME280;62974;49.460;10.892;2023-06-22T03:27:06;97988.34;;;19.39;84.41
73085;BME280;62974;49.460;10.892;2023-06-22T03:29:34;97983.47;;;19.41;84.29
73085;BME280;62974;49.460;10.892;2023-06-22T03:32:02;97989.34;;;19.33;85.33
73085;BME280;62974;49.460;10.892;2023-06-22T03:34:31;97984.47;;;19.35;84.68
73085;BME280;62974;49.460;10.892;2023-06-22T03:37:00;97985.16;;;18.70;93.52
73085;BME280;62974;49.460;10.892;2023-06-22T03:39:27;97979.06;;;19.18;88.50
73085;BME280;62974;49.460;10.892;2023-06-22T03:41:55;97986.81;;;19.26;87.13
73085;BME280;62974;49.460;10.892;2023-06-22T03:44:24;97980.09;;;19.34;86.04
73085;BME280;62974;49.460;10.892;2023-06-22T03:46:51;97964.53;;;18.91;91.46
73085;BME280;62974;49.460;10.892;2023-06-22T03:49:19;97939.53;;;19.15;87.78
73085;BME280;62974;49.460;10.892;2023-06-22T03:51:46;97957.84;;;19.20;89.77
73085;BME280;62974;49.460;10.892;2023-06-22T03:54:14;97963.38;;;19.25;89.15
73085;BME280;62974;49.460;10.892;2023-06-22T03:56:41;97954.09;;;19.43;85.30
73085;BME280;62974;49.460;10.892;2023-06-22T03:59:09;97932.22;;;19.38;87.22
73085;BME280;62974;49.460;10.892;2023-06-22T04:01:38;97932.81;;;19.23;91.15
73085;BME280;62974;49.460;10.892;2023-06-22T04:04:05;97948.72;;;19.31;90.08
73085;BME280;62974;49.460;10.892;2023-06-22T04:06:33;97966.28;;;19.40;88.61
73085;BME280;62974;49.460;10.892;2023-06-22T04:09:01;97944.53;;;19.23;89.72
73085;BME280;62974;49.460;10.892;2023-06-22T04:11:29;97922.28;;;19.27;91.87
73085;BME280;62974;49.460;10.892;2023-06-22T04:13:56;97922.38;;;18.93;96.93
73085;BME280;62974;49.460;10.892;2023-06-22T04:16:24;97939.28;;;19.17;94.46
73085;BME280;62974;49.460;10.892;2023-06-22T04:18:53;97940.94;;;19.40;92.09
73085;BME280;62974;49.460;10.892;2023-06-22T04:21:20;97933.81;;;19.34;92.79
73085;BME280;62974;49.460;10.892;2023-06-22T04:23:48;97924.47;;;19.08;97.71
73085;BME280;62974;49.460;10.892;2023-06-22T04:26:15;97922.06;;;19.11;98.53
73085;BME280;62974;49.460;10.892;2023-06-22T04:28:43;97911.78;;;19.57;90.03
73085;BME280;62974;49.460;10.892;2023-06-22T04:31:17;97904.50;;;19.62;91.70
73085;BME280;62974;49.460;10.892;2023-06-22T04:33:45;97916.84;;;19.48;93.76
73085;BME280;62974;49.460;10.892;2023-06-22T04:36:14;97918.84;;;19.36;94.70
73085;BME280;62974;49.460;10.892;2023-06-22T04:38:42;97906.44;;;19.23;97.55
73085;BME280;62974;49.460;10.892;2023-06-22T04:41:10;97887.63;;;19.44;94.92
73085;BME280;62974;49.460;10.892;2023-06-22T04:43:40;97889.59;;;19.70;91.05
73085;BME280;62974;49.460;10.892;2023-06-22T04:46:08;97884.47;;;19.79;86.58
73085;BME280;62974;49.460;10.892;2023-06-22T04:48:35;97901.81;;;19.24;98.94
73085;BME280;62974;49.460;10.892;2023-06-22T04:51:03;97888.47;;;19.44;98.67
73085;BME280;62974;49.460;10.892;2023-06-22T04:53:32;97868.03;;;19.68;93.69
73085;BME280;62974;49.460;10.892;2023-06-22T04:56:00;97887.53;;;19.82;95.22
73085;BME280;62974;49.460;10.892;2023-06-22T04:58:30;97894.97;;;19.92;93.10
73085;BME280;62974;49.460;10.892;2023-06-22T05:00:58;97886.50;;;19.88;91.21
73085;BME280;62974;49.460;10.892;2023-06-22T05:03:26;97885.34;;;19.84;97.20
73085;BME280;62974;49.460;10.892;2023-06-22T05:05:54;97883.41;;;19.80;97.87
73085;BME280;62974;49.460;10.892;2023-06-22T05:08:21;97884.94;;;19.97;94.25
73085;BME280;62974;49.460;10.892;2023-06-22T05:10:54;97886.28;;;20.27;94.38
73085;BME280;62974;49.460;10.892;2023-06-22T05:13:30;97881.66;;;20.27;91.48
73085;BME280;62974;49.460;10.892;2023-06-22T05:15:58;97883.06;;;20.03;97.74
73085;BME280;62974;49.460;10.892;2023-06-22T05:18:29;97892.09;;;20.03;100.00
73085;BME280;62974;49.460;10.892;2023-06-22T05:20:58;97885.06;;;19.81;99.44
73085;BME280;62974;49.460;10.892;2023-06-22T05:23:26;97882.41;;;20.17;96.40
73085;BME280;62974;49.460;10.892;2023-06-22T05:25:54;97889.47;;;20.13;98.93
73085;BME280;62974;49.460;10.892;2023-06-22T05:28:24;97877.22;;;20.48;95.48
73085;BME280;62974;49.460;10.892;2023-06-22T05:30:51;97881.78;;;20.37;97.54
73085;BME280;62974;49.460;10.892;2023-06-22T05:33:19;97882.84;;;20.36;94.12
73085;BME280;62974;49.460;10.892;2023-06-22T05:35:47;97887.75;;;20.34;94.90
73085;BME280;62974;49.460;10.892;2023-06-22T05:38:14;97884.88;;;20.51;94.36
73085;BME280;62974;49.460;10.892;2023-06-22T05:40:42;97880.81;;;20.53;96.79
73085;BME280;62974;49.460;10.892;2023-06-22T05:43:11;97874.22;;;20.49;95.28
73085;BME280;62974;49.460;10.892;2023-06-22T05:45:38;97874.28;;;20.59;95.33
73085;BME280;62974;49.460;10.892;2023-06-22T05:48:06;97878.81;;;20.81;94.31
73085;BME280;62974;49.460;10.892;2023-06-22T05:50:33;97872.22;;;20.77;95.59
73085;BME280;62974;49.460;10.892;2023-06-22T05:53:01;97864.06;;;20.82;93.04
73085;BME280;62974;49.460;10.892;2023-06-22T05:55:28;97859.50;;;21.02;94.32
73085;BME280;62974;49.460;10.892;2023-06-22T05:57:58;97852.25;;;21.18;91.54
73085;BME280;62974;49.460;10.892;2023-06-22T06:00:27;97863.50;;;21.32;90.89
73085;BME280;62974;49.460;10.892;2023-06-22T06:02:55;97869.78;;;21.32;89.15
73085;BME280;62974;49.460;10.892;2023-06-22T06:05:23;97875.03;;;21.44;91.25
73085;BME280;62974;49.460;10.892;2023-06-22T06:07:51;97864.41;;;21.58;89.28
73085;BME280;62974;49.460;10.892;2023-06-22T06:10:19;97858.09;;;21.52;88.94
73085;BME280;62974;49.460;10.892;2023-06-22T06:12:46;97858.91;;;21.47;89.29
73085;BME280;62974;49.460;10.892;2023-06-22T06:15:14;97864.63;;;21.46;90.58
73085;BME280;62974;49.460;10.892;2023-06-22T06:17:46;97854.59;;;21.67;88.43
73085;BME280;62974;49.460;10.892;2023-06-22T06:20:14;97857.69;;;22.11;87.78
73085;BME280;62974;49.460;10.892;2023-06-22T06:22:42;97838.25;;;22.02;86.46
73085;BME280;62974;49.460;10.892;2023-06-22T06:25:10;97836.88;;;22.15;87.97
73085;BME280;62974;49.460;10.892;2023-06-22T06:27:42;97835.00;;;22.20;86.54
73085;BME280;62974;49.460;10.892;2023-06-22T06:30:11;97841.81;;;22.23;87.78
73085;BME280;62974;49.460;10.892;2023-06-22T06:32:39;97837.69;;;22.45;84.55
73085;BME280;62974;49.460;10.892;2023-06-22T06:35:09;97839.63;;;22.45;86.50
73085;BME280;62974;49.460;10.892;2023-06-22T06:37:39;97836.88;;;22.35;85.23
73085;BME280;62974;49.460;10.892;2023-06-22T06:40:09;97836.59;;;22.46;85.78
73085;BME280;62974;49.460;10.892;2023-06-22T06:42:37;97837.94;;;22.54;84.80
73085;BME280;62974;49.460;10.892;2023-06-22T06:45:07;97826.50;;;22.32;84.43
73085;BME280;62974;49.460;10.892;2023-06-22T06:47:35;97821.22;;;22.66;85.15
73085;BME280;62974;49.460;10.892;2023-06-22T06:50:04;97828.13;;;22.53;83.74
73085;BME280;62974;49.460;10.892;2023-06-22T06:52:33;97813.31;;;22.64;84.03
73085;BME280;62974;49.460;10.892;2023-06-22T06:55:04;97806.47;;;22.57;82.72
73085;BME280;62974;49.460;10.892;2023-06-22T06:57:34;97813.59;;;22.73;82.98
73085;BME280;62974;49.460;10.892;2023-06-22T07:00:04;97808.09;;;22.78;82.64
73085;BME280;62974;49.460;10.892;2023-06-22T07:02:38;97807.81;;;22.84;82.33
73085;BME280;62974;49.460;10.892;2023-06-22T07:05:08;97805.53;;;23.02;83.45
73085;BME280;62974;49.460;10.892;2023-06-22T07:07:38;97795.97;;;22.94;81.50
73085;BME280;62974;49.460;10.892;2023-06-22T07:10:06;97812.91;;;23.06;81.55
73085;BME280;62974;49.460;10.892;2023-06-22T07:12:34;97809.09;;;23.07;81.19
73085;BME280;62974;49.460;10.892;2023-06-22T07:15:03;97793.03;;;23.45;79.16
73085;BME280;62974;49.460;10.892;2023-06-22T07:17:31;97791.28;;;23.59;77.91
73085;BME280;62974;49.460;10.892;2023-06-22T07:19:59;97786.75;;;23.78;77.53
73085;BME280;62974;49.460;10.892;2023-06-22T07:22:26;97790.13;;;24.04;76.30
73085;BME280;62974;49.460;10.892;2023-06-22T07:24:55;97797.50;;;23.69;78.79
73085;BME280;62974;49.460;10.892;2023-06-22T07:27:23;97789.22;;;23.79;77.10
73085;BME280;62974;49.460;10.892;2023-06-22T07:29:51;97791.97;;;24.47;75.71
73085;BME280;62974;49.460;10.892;2023-06-22T07:32:18;97787.53;;;24.22;74.94
73085;BME280;62974;49.460;10.892;2023-06-22T07:34:46;97790.41;;;23.68;76.53
73085;BME280;62974;49.460;10.892;2023-06-22T07:37:13;97785.19;;;24.63;74.66
73085;BME280;62974;49.460;10.892;2023-06-22T07:39:41;97779.84;;;23.85;77.27
73085;BME280;62974;49.460;10.892;2023-06-22T07:42:10;97783.28;;;24.01;75.40
73085;BME280;62974;49.460;10.892;2023-06-22T07:44:37;97785.41;;;24.09;77.42
73085;BME280;62974;49.460;10.892;2023-06-22T07:47:05;97778.66;;;24.59;74.19
73085;BME280;62974;49.460;10.892;2023-06-22T07:49:33;97778.44;;;24.27;74.49
73085;BME280;62974;49.460;10.892;2023-06-22T07:52:00;97774.97;;;24.16;75.40
73085;BME280;62974;49.460;10.892;2023-06-22T07:54:31;97773.00;;;24.17;74.98
73085;BME280;62974;49.460;10.892;2023-06-22T07:56:59;97766.78;;;25.11;71.52
73085;BME280;62974;49.460;10.892;2023-06-22T07:59:28;97773.63;;;24.66;70.34
73085;BME280;62974;49.460;10.892;2023-06-22T08:01:55;97777.41;;;24.99;71.46
73085;BME280;62974;49.460;10.892;2023-06-22T08:04:23;97776.38;;;24.66;71.12
73085;BME280;62974;49.460;10.892;2023-06-22T08:06:50;97783.63;;;25.05;70.97
73085;BME280;62974;49.460;10.892;2023-06-22T08:09:18;97777.75;;;25.35;68.93
73085;BME280;62974;49.460;10.892;2023-06-22T08:11:45;97773.59;;;25.56;70.00
73085;BME280;62974;49.460;10.892;2023-06-22T08:14:13;97773.44;;;25.48;70.21
73085;BME280;62974;49.460;10.892;2023-06-22T08:16:42;97763.56;;;25.47;64.71
73085;BME280;62974;49.460;10.892;2023-06-22T08:19:10;97767.00;;;25.57;65.06
73085;BME280;62974;49.460;10.892;2023-06-22T08:21:37;97772.06;;;25.08;69.50
73085;BME280;62974;49.460;10.892;2023-06-22T08:24:06;97758.97;;;25.61;66.75
73085;BME280;62974;49.460;10.892;2023-06-22T08:26:34;97761.38;;;25.81;68.71
73085;BME280;62974;49.460;10.892;2023-06-22T08:29:03;97755.00;;;25.86;65.08
73085;BME280;62974;49.460;10.892;2023-06-22T08:31:31;97756.16;;;25.98;63.69
73085;BME280;62974;49.460;10.892;2023-06-22T08:34:02;97756.53;;;25.92;64.11
73085;BME280;62974;49.460;10.892;2023-06-22T08:36:30;97757.66;;;25.91;64.17
73085;BME280;62974;49.460;10.892;2023-06-22T08:38:59;97754.88;;;26.42;62.76
73085;BME280;62974;49.460;10.892;2023-06-22T08:41:29;97745.66;;;26.00;61.96
73085;BME280;62974;49.460;10.892;2023-06-22T08:43:57;97765.56;;;25.60;65.14
73085;BME280;62974;49.460;10.892;2023-06-22T08:46:24;97756.72;;;25.82;64.50
73085;BME280;62974;49.460;10.892;2023-06-22T08:48:57;97752.66;;;25.93;63.44
73085;BME280;62974;49.460;10.892;2023-06-22T08:51:26;97735.28;;;26.43;60.11
73085;BME280;62974;49.460;10.892;2023-06-22T08:53:53;97753.75;;;26.10;64.24
73085;BME280;62974;49.460;10.892;2023-06-22T08:56:21;97750.69;;;26.31;65.12
73085;BME280;62974;49.460;10.892;2023-06-22T08:58:48;97743.56;;;25.79;65.95
73085;BME280;62974;49.460;10.892;2023-06-22T09:01:16;97741.19;;;26.04;62.94
73085;BME280;62974;49.460;10.892;2023-06-22T09:03:45;97734.69;;;26.46;62.75
73085;BME280;62974;49.460;10.892;2023-06-22T09:06:20;97739.47;;;26.08;62.67
73085;BME280;62974;49.460;10.892;2023-06-22T09:08:49;97729.47;;;26.45;60.08
73085;BME280;62974;49.460;10.892;2023-06-22T09:11:17;97716.00;;;26.43;60.46
73085;BME280;62974;49.460;10.892;2023-06-22T09:13:44;97724.28;;;26.98;61.02
73085;BME280;62974;49.460;10.892;2023-06-22T09:16:12;97713.78;;;26.59;60.56
73085;BME280;62974;49.460;10.892;2023-06-22T09:18:40;97717.75;;;26.94;62.42
73085;BME280;62974;49.460;10.892;2023-06-22T09:21:08;97707.03;;;26.79;62.64
73085;BME280;62974;49.460;10.892;2023-06-22T09:23:35;97695.06;;;27.11;60.54
73085;BME280;62974;49.460;10.892;2023-06-22T09:26:05;97689.28;;;26.85;60.93
73085;BME280;62974;49.460;10.892;2023-06-22T09:28:32;97689.16;;;26.76;61.52
73085;BME280;62974;49.460;10.892;2023-06-22T09:31:00;97697.84;;;26.56;63.03
73085;BME280;62974;49.460;10.892;2023-06-22T09:33:28;97691.03;;;26.67;61.40
73085;BME280;62974;49.460;10.892;2023-06-22T09:35:55;97684.88;;;26.84;61.97
73085;BME280;62974;49.460;10.892;2023-06-22T09:38:23;97672.53;;;26.95;59.34
73085;BME280;62974;49.460;10.892;2023-06-22T09:40:50;97677.47;;;27.20;58.66
73085;BME280;62974;49.460;10.892;2023-06-22T09:43:19;97674.56;;;27.03;60.19
73085;BME280;62974;49.460;10.892;2023-06-22T09:45:47;97666.16;;;27.08;60.40
73085;BME280;62974;49.460;10.892;2023-06-22T09:48:15;97651.72;;;27.91;59.01
73085;BME280;62974;49.460;10.892;2023-06-22T09:50:42;97658.25;;;27.29;60.80
73085;BME280;62974;49.460;10.892;2023-06-22T09:53:10;97649.13;;;27.64;59.88
73085;BME280;62974;49.460;10.892;2023-06-22T09:55:37;97653.47;;;27.87;58.05
73085;BME280;62974;49.460;10.892;2023-06-22T09:58:05;97662.84;;;27.55;60.26
73085;BME280;62974;49.460;10.892;2023-06-22T10:00:34;97668.50;;;27.73;59.44
73085;BME280;62974;49.460;10.892;2023-06-22T10:03:01;97653.25;;;27.75;57.43
73085;BME280;62974;49.460;10.892;2023-06-22T10:05:29;97653.88;;;27.72;58.85
73085;BME280;62974;49.460;10.892;2023-06-22T10:07:58;97650.38;;;28.51;57.42
73085;BME280;62974;49.460;10.892;2023-06-22T10:10:26;97668.13;;;28.89;57.28
73085;BME280;62974;49.460;10.892;2023-06-22T10:12:55;97673.75;;;27.83;57.62
73085;BME280;62974;49.460;10.892;2023-06-22T10:15:23;97655.91;;;28.11;54.33
73085;BME280;62974;49.460;10.892;2023-06-22T10:17:55;97677.25;;;28.59;57.09
73085;BME280;62974;49.460;10.892;2023-06-22T10:20:22;97664.94;;;28.03;55.38
73085;BME280;62974;49.460;10.892;2023-06-22T10:22:51;97682.00;;;28.58;53.39
73085;BME280;62974;49.460;10.892;2023-06-22T10:25:19;97685.88;;;29.05;54.98
73085;BME280;62974;49.460;10.892;2023-06-22T10:27:47;97686.63;;;28.40;54.37
73085;BME280;62974;49.460;10.892;2023-06-22T10:30:14;97682.28;;;29.05;52.30
73085;BME280;62974;49.460;10.892;2023-06-22T10:32:43;97682.06;;;28.84;53.32
73085;BME280;62974;49.460;10.892;2023-06-22T10:35:12;97693.81;;;28.59;54.83
73085;BME280;62974;49.460;10.892;2023-06-22T10:37:42;97687.94;;;28.91;53.48
73085;BME280;62974;49.460;10.892;2023-06-22T10:40:12;97693.13;;;28.84;53.06
73085;BME280;62974;49.460;10.892;2023-06-22T10:42:39;97704.72;;;28.55;56.26
73085;BME280;62974;49.460;10.892;2023-06-22T10:45:07;97691.06;;;28.59;53.84
73085;BME280;62974;49.460;10.892;2023-06-22T10:47:35;97669.91;;;29.11;53.14
73085;BME280;62974;49.460;10.892;2023-06-22T10:50:04;97674.56;;;28.76;54.86
73085;BME280;62974;49.460;10.892;2023-06-22T10:52:33;97671.38;;;29.00;54.13
73085;BME280;62974;49.460;10.892;2023-06-22T10:55:01;97651.34;;;29.03;51.41
73085;BME280;62974;49.460;10.892;2023-06-22T10:57:28;97671.91;;;29.10;54.39
73085;BME280;62974;49.460;10.892;2023-06-22T10:59:56;97661.97;;;29.09;51.73
73085;BME280;62974;49.460;10.892;2023-06-22T11:02:23;97650.09;;;29.26;50.59
73085;BME280;62974;49.460;10.892;2023-06-22T11:04:51;97634.00;;;29.54;49.92
73085;BME280;62974;49.460;10.892;2023-06-22T11:07:19;97644.53;;;29.09;51.72
73085;BME280;62974;49.460;10.892;2023-06-22T11:09:48;97631.41;;;29.49;50.98
73085;BME280;62974;49.460;10.892;2023-06-22T11:12:15;97639.25;;;30.10;51.87
73085;BME280;62974;49.460;10.892;2023-06-22T11:14:43;97631.03;;;29.07;52.02
73085;BME280;62974;49.460;10.892;2023-06-22T11:17:10;97628.09;;;29.04;52.26
73085;BME280;62974;49.460;10.892;2023-06-22T11:19:38;97631.53;;;29.01;52.40
73085;BME280;62974;49.460;10.892;2023-06-22T11:22:05;97641.78;;;29.09;53.32
73085;BME280;62974;49.460;10.892;2023-06-22T11:24:33;97620.16;;;29.36;50.97
73085;BME280;62974;49.460;10.892;2023-06-22T11:27:02;97642.59;;;29.01;53.04
73085;BME280;62974;49.460;10.892;2023-06-22T11:29:29;97621.75;;;29.63;51.66
73085;BME280;62974;49.460;10.892;2023-06-22T11:32:04;97609.09;;;29.54;50.54
73085;BME280;62974;49.460;10.892;2023-06-22T11:34:32;97615.28;;;29.33;53.00
73085;BME280;62974;49.460;10.892;2023-06-22T11:37:00;97623.03;;;29.74;54.68
73085;BME280;62974;49.460;10.892;2023-06-22T11:39:27;97618.28;;;30.47;52.10
73085;BME280;62974;49.460;10.892;2023-06-22T11:42:09;97598.91;;;29.92;47.71
73085;BME280;62974;49.460;10.892;2023-06-22T11:44:37;97596.44;;;29.99;47.98
73085;BME280;62974;49.460;10.892;2023-06-22T11:47:05;97599.88;;;29.96;50.84
73085;BME280;62974;49.460;10.892;2023-06-22T11:49:33;97591.53;;;30.13;50.43
73085;BME280;62974;49.460;10.892;2023-06-22T11:52:01;97577.66;;;30.43;47.24
73085;BME280;62974;49.460;10.892;2023-06-22T11:54:28;97572.50;;;30.33;48.44
73085;BME280;62974;49.460;10.892;2023-06-22T11:56:56;97581.66;;;29.87;50.94
73085;BME280;62974;49.460;10.892;2023-06-22T11:59:24;97569.56;;;30.38;46.83
73085;BME280;62974;49.460;10.892;2023-06-22T12:01:52;97588.00;;;30.34;52.21
73085;BME280;62974;49.460;10.892;2023-06-22T12:04:19;97580.19;;;30.27;47.87
73085;BME280;62974;49.460;10.892;2023-06-22T12:06:47;97578.25;;;29.81;49.37
73085;BME280;62974;49.460;10.892;2023-06-22T12:09:14;97565.91;;;30.16;46.86
73085;BME280;62974;49.460;10.892;2023-06-22T12:11:42;97552.41;;;30.06;48.52
73085;BME280;62974;49.460;10.892;2023-06-22T12:14:09;97554.38;;;29.51;48.62
73085;BME280;62974;49.460;10.892;2023-06-22T12:16:38;97555.81;;;29.65;50.50
73085;BME280;62974;49.460;10.892;2023-06-22T12:19:06;97545.91;;;29.56;48.89
73085;BME280;62974;49.460;10.892;2023-06-22T12:21:33;97537.13;;;29.54;50.36
73085;BME280;62974;49.460;10.892;2023-06-22T12:24:01;97529.16;;;29.44;49.37
73085;BME280;62974;49.460;10.892;2023-06-22T12:26:28;97530.50;;;29.29;50.64
73085;BME280;62974;49.460;10.892;2023-06-22T12:28:56;97526.88;;;29.46;51.12
73085;BME280;62974;49.460;10.892;2023-06-22T12:31:23;97529.59;;;29.54;50.43
73085;BME280;62974;49.460;10.892;2023-06-22T12:33:52;97507.34;;;29.97;47.08
73085;BME280;62974;49.460;10.892;2023-06-22T12:36:19;97520.94;;;29.73;49.79
73085;BME280;62974;49.460;10.892;2023-06-22T12:38:47;97503.34;;;30.45;48.51
73085;BME280;62974;49.460;10.892;2023-06-22T12:41:14;97505.66;;;30.84;47.70
73085;BME280;62974;49.460;10.892;2023-06-22T12:43:42;97522.28;;;30.34;51.07
73085;BME280;62974;49.460;10.892;2023-06-22T12:46:09;97521.53;;;30.54;50.14
73085;BME280;62974;49.460;10.892;2023-06-22T12:48:37;97513.53;;;30.23;49.29
73085;BME280;62974;49.460;10.892;2023-06-22T12:51:09;97518.84;;;30.37;48.44
73085;BME280;62974;49.460;10.892;2023-06-22T12:53:39;97502.75;;;30.60;47.21
73085;BME280;62974;49.460;10.892;2023-06-22T12:56:06;97496.16;;;30.14;47.79